<?xml version="1.0" encoding="UTF-8" standalone="no" ?>
<gpx xmlns="http://www.topografix.com/GPX/1/1" xmlns:xsi="http://www.w3.org/2001/XMLSchema-instance" xsi:schemaLocation="http://www.topografix.com/GPX/1/1 http://www.topografix.com/GPX/1/1/gpx.xsd" version="1.1" creator="VisuGPX - https://www.visugpx.com">
  <metadata>
    <name>Le pas du Facteur départ de MONTALIEU chartreuse</name>
    <desc><![CDATA[Randonnée aux cascades du plateau de saint Georges , la Flachère.]]></desc>
  </metadata>
  <trk>
    <name><![CDATA[20190415194450-FXGEH]]></name>
    <trkseg>
      <trkpt lat="45.38793" lon="5.95412">
        <ele>401</ele>
        <time>2019-04-08T10:59:29Z</time>
      </trkpt>
      <trkpt lat="45.38793" lon="5.95412">
        <ele>401</ele>
        <time>2019-04-08T10:59:29Z</time>
      </trkpt>
      <trkpt lat="45.38904" lon="5.95432">
        <ele>422</ele>
        <time>2019-04-08T11:00:29Z</time>
      </trkpt>
      <trkpt lat="45.39055" lon="5.95524">
        <ele>459</ele>
        <time>2019-04-08T11:01:29Z</time>
      </trkpt>
      <trkpt lat="45.39202" lon="5.95565">
        <ele>498</ele>
        <time>2019-04-08T11:02:29Z</time>
      </trkpt>
      <trkpt lat="45.39166" lon="5.95445">
        <ele>526</ele>
        <time>2019-04-08T11:03:29Z</time>
      </trkpt>
      <trkpt lat="45.39324" lon="5.95533">
        <ele>545</ele>
        <time>2019-04-08T11:04:29Z</time>
      </trkpt>
      <trkpt lat="45.39547" lon="5.95777">
        <ele>501</ele>
        <time>2019-04-08T11:05:29Z</time>
      </trkpt>
      <trkpt lat="45.39625" lon="5.95846">
        <ele>486</ele>
        <time>2019-04-08T11:06:29Z</time>
      </trkpt>
      <trkpt lat="45.39679" lon="5.95846">
        <ele>490</ele>
        <time>2019-04-08T11:07:29Z</time>
      </trkpt>
      <trkpt lat="45.4001" lon="5.96144">
        <ele>462</ele>
        <time>2019-04-08T11:08:29Z</time>
      </trkpt>
      <trkpt lat="45.40046" lon="5.96105">
        <ele>481</ele>
        <time>2019-04-08T11:09:29Z</time>
      </trkpt>
      <trkpt lat="45.40092" lon="5.96124">
        <ele>483</ele>
        <time>2019-04-08T11:10:29Z</time>
      </trkpt>
      <trkpt lat="45.40096" lon="5.96093">
        <ele>496</ele>
        <time>2019-04-08T11:11:29Z</time>
      </trkpt>
      <trkpt lat="45.404" lon="5.9606">
        <ele>598</ele>
        <time>2019-04-08T11:12:29Z</time>
      </trkpt>
      <trkpt lat="45.40524" lon="5.9601">
        <ele>649</ele>
        <time>2019-04-08T11:13:29Z</time>
      </trkpt>
      <trkpt lat="45.40615" lon="5.95992">
        <ele>655</ele>
        <time>2019-04-08T11:14:29Z</time>
      </trkpt>
      <trkpt lat="45.40686" lon="5.9584">
        <ele>696</ele>
        <time>2019-04-08T11:15:29Z</time>
      </trkpt>
      <trkpt lat="45.40747" lon="5.95782">
        <ele>692</ele>
        <time>2019-04-08T11:16:29Z</time>
      </trkpt>
      <trkpt lat="45.4079" lon="5.95645">
        <ele>735</ele>
        <time>2019-04-08T11:17:29Z</time>
      </trkpt>
      <trkpt lat="45.40711" lon="5.95656">
        <ele>789</ele>
        <time>2019-04-08T11:18:29Z</time>
      </trkpt>
      <trkpt lat="45.40653" lon="5.95638">
        <ele>855</ele>
        <time>2019-04-08T11:19:29Z</time>
      </trkpt>
      <trkpt lat="45.40572" lon="5.95674">
        <ele>856</ele>
        <time>2019-04-08T11:20:29Z</time>
      </trkpt>
      <trkpt lat="45.40531" lon="5.95616">
        <ele>879</ele>
        <time>2019-04-08T11:21:29Z</time>
      </trkpt>
      <trkpt lat="45.40572" lon="5.95595">
        <ele>903</ele>
        <time>2019-04-08T11:22:29Z</time>
      </trkpt>
      <trkpt lat="45.40585" lon="5.95497">
        <ele>935</ele>
        <time>2019-04-08T11:23:29Z</time>
      </trkpt>
      <trkpt lat="45.40559" lon="5.95443">
        <ele>942</ele>
        <time>2019-04-08T11:24:29Z</time>
      </trkpt>
      <trkpt lat="45.40582" lon="5.95277">
        <ele>945</ele>
        <time>2019-04-08T11:25:29Z</time>
      </trkpt>
      <trkpt lat="45.40567" lon="5.9518">
        <ele>951</ele>
        <time>2019-04-08T11:26:29Z</time>
      </trkpt>
      <trkpt lat="45.4058" lon="5.95086">
        <ele>947</ele>
        <time>2019-04-08T11:27:29Z</time>
      </trkpt>
      <trkpt lat="45.40536" lon="5.94977">
        <ele>942</ele>
        <time>2019-04-08T11:28:29Z</time>
      </trkpt>
      <trkpt lat="45.40632" lon="5.94822">
        <ele>930</ele>
        <time>2019-04-08T11:29:29Z</time>
      </trkpt>
      <trkpt lat="45.40885" lon="5.95129">
        <ele>915</ele>
        <time>2019-04-08T11:30:29Z</time>
      </trkpt>
      <trkpt lat="45.4104" lon="5.95313">
        <ele>870</ele>
        <time>2019-04-08T11:31:29Z</time>
      </trkpt>
      <trkpt lat="45.41098" lon="5.95306">
        <ele>886</ele>
        <time>2019-04-08T11:32:29Z</time>
      </trkpt>
      <trkpt lat="45.41156" lon="5.95295">
        <ele>899</ele>
        <time>2019-04-08T11:33:29Z</time>
      </trkpt>
      <trkpt lat="45.41232" lon="5.95371">
        <ele>922</ele>
        <time>2019-04-08T11:34:29Z</time>
      </trkpt>
      <trkpt lat="45.41374" lon="5.95443">
        <ele>950</ele>
        <time>2019-04-08T11:35:29Z</time>
      </trkpt>
      <trkpt lat="45.41698" lon="5.95591">
        <ele>949</ele>
        <time>2019-04-08T11:36:29Z</time>
      </trkpt>
      <trkpt lat="45.41617" lon="5.95356">
        <ele>955</ele>
        <time>2019-04-08T11:37:29Z</time>
      </trkpt>
      <trkpt lat="45.41578" lon="5.95269">
        <ele>963</ele>
        <time>2019-04-08T11:38:29Z</time>
      </trkpt>
      <trkpt lat="45.41592" lon="5.95208">
        <ele>981</ele>
        <time>2019-04-08T11:39:29Z</time>
      </trkpt>
      <trkpt lat="45.41567" lon="5.95044">
        <ele>999</ele>
        <time>2019-04-08T11:40:29Z</time>
      </trkpt>
      <trkpt lat="45.41564" lon="5.94886">
        <ele>1015</ele>
        <time>2019-04-08T11:41:29Z</time>
      </trkpt>
      <trkpt lat="45.41478" lon="5.9483">
        <ele>1001</ele>
        <time>2019-04-08T11:42:29Z</time>
      </trkpt>
      <trkpt lat="45.41467" lon="5.94728">
        <ele>1011</ele>
        <time>2019-04-08T11:43:29Z</time>
      </trkpt>
      <trkpt lat="45.4118" lon="5.94524">
        <ele>1006</ele>
        <time>2019-04-08T11:44:29Z</time>
      </trkpt>
      <trkpt lat="45.40835" lon="5.94557">
        <ele>969</ele>
        <time>2019-04-08T11:45:29Z</time>
      </trkpt>
      <trkpt lat="45.40683" lon="5.94546">
        <ele>952</ele>
        <time>2019-04-08T11:46:29Z</time>
      </trkpt>
      <trkpt lat="45.40585" lon="5.94448">
        <ele>952</ele>
        <time>2019-04-08T11:47:29Z</time>
      </trkpt>
      <trkpt lat="45.40406" lon="5.94409">
        <ele>945</ele>
        <time>2019-04-08T11:48:29Z</time>
      </trkpt>
      <trkpt lat="45.40314" lon="5.94297">
        <ele>949</ele>
        <time>2019-04-08T11:49:29Z</time>
      </trkpt>
      <trkpt lat="45.40228" lon="5.94236">
        <ele>945</ele>
        <time>2019-04-08T11:50:29Z</time>
      </trkpt>
      <trkpt lat="45.40142" lon="5.94019">
        <ele>945</ele>
        <time>2019-04-08T11:51:29Z</time>
      </trkpt>
      <trkpt lat="45.40099" lon="5.93961">
        <ele>929</ele>
        <time>2019-04-08T11:52:29Z</time>
      </trkpt>
      <trkpt lat="45.40036" lon="5.94026">
        <ele>914</ele>
        <time>2019-04-08T11:53:29Z</time>
      </trkpt>
      <trkpt lat="45.39942" lon="5.93914">
        <ele>877</ele>
        <time>2019-04-08T11:54:29Z</time>
      </trkpt>
      <trkpt lat="45.39957" lon="5.93817">
        <ele>876</ele>
        <time>2019-04-08T11:55:29Z</time>
      </trkpt>
      <trkpt lat="45.39767" lon="5.93651">
        <ele>849</ele>
        <time>2019-04-08T11:56:29Z</time>
      </trkpt>
      <trkpt lat="45.39534" lon="5.93369">
        <ele>827</ele>
        <time>2019-04-08T11:57:29Z</time>
      </trkpt>
      <trkpt lat="45.39455" lon="5.93465">
        <ele>810</ele>
        <time>2019-04-08T11:58:29Z</time>
      </trkpt>
      <trkpt lat="45.39333" lon="5.9352">
        <ele>800</ele>
        <time>2019-04-08T11:59:29Z</time>
      </trkpt>
      <trkpt lat="45.39217" lon="5.93473">
        <ele>793</ele>
        <time>2019-04-08T12:00:29Z</time>
      </trkpt>
      <trkpt lat="45.39128" lon="5.93527">
        <ele>776</ele>
        <time>2019-04-08T12:01:29Z</time>
      </trkpt>
      <trkpt lat="45.39166" lon="5.93606">
        <ele>771</ele>
        <time>2019-04-08T12:02:29Z</time>
      </trkpt>
      <trkpt lat="45.39242" lon="5.93758">
        <ele>755</ele>
        <time>2019-04-08T12:03:29Z</time>
      </trkpt>
      <trkpt lat="45.39402" lon="5.93801">
        <ele>745</ele>
        <time>2019-04-08T12:04:29Z</time>
      </trkpt>
      <trkpt lat="45.39458" lon="5.93862">
        <ele>746</ele>
        <time>2019-04-08T12:05:29Z</time>
      </trkpt>
      <trkpt lat="45.39242" lon="5.94212">
        <ele>738</ele>
        <time>2019-04-08T12:06:29Z</time>
      </trkpt>
      <trkpt lat="45.39242" lon="5.94259">
        <ele>731</ele>
        <time>2019-04-08T12:07:29Z</time>
      </trkpt>
      <trkpt lat="45.39322" lon="5.94259">
        <ele>759</ele>
        <time>2019-04-08T12:08:29Z</time>
      </trkpt>
      <trkpt lat="45.39321" lon="5.94409">
        <ele>747</ele>
        <time>2019-04-08T12:09:29Z</time>
      </trkpt>
      <trkpt lat="45.3931" lon="5.94443">
        <ele>752</ele>
        <time>2019-04-08T12:10:29Z</time>
      </trkpt>
      <trkpt lat="45.39287" lon="5.94457">
        <ele>750</ele>
        <time>2019-04-08T12:11:29Z</time>
      </trkpt>
      <trkpt lat="45.3929" lon="5.9436">
        <ele>729</ele>
        <time>2019-04-08T12:12:29Z</time>
      </trkpt>
      <trkpt lat="45.39186" lon="5.94294">
        <ele>687</ele>
        <time>2019-04-08T12:13:29Z</time>
      </trkpt>
      <trkpt lat="45.39075" lon="5.94126">
        <ele>656</ele>
        <time>2019-04-08T12:14:29Z</time>
      </trkpt>
      <trkpt lat="45.39035" lon="5.94011">
        <ele>676</ele>
        <time>2019-04-08T12:15:29Z</time>
      </trkpt>
      <trkpt lat="45.39061" lon="5.94058">
        <ele>669</ele>
        <time>2019-04-08T12:16:29Z</time>
      </trkpt>
      <trkpt lat="45.39074" lon="5.94124">
        <ele>656</ele>
        <time>2019-04-08T12:17:29Z</time>
      </trkpt>
      <trkpt lat="45.39153" lon="5.94219">
        <ele>685</ele>
        <time>2019-04-08T12:18:29Z</time>
      </trkpt>
      <trkpt lat="45.39177" lon="5.94309">
        <ele>680</ele>
        <time>2019-04-08T12:19:29Z</time>
      </trkpt>
      <trkpt lat="45.39123" lon="5.94378">
        <ele>648</ele>
        <time>2019-04-08T12:20:29Z</time>
      </trkpt>
      <trkpt lat="45.39049" lon="5.94545">
        <ele>618</ele>
        <time>2019-04-08T12:21:29Z</time>
      </trkpt>
      <trkpt lat="45.39011" lon="5.94687">
        <ele>599</ele>
        <time>2019-04-08T12:22:29Z</time>
      </trkpt>
      <trkpt lat="45.39001" lon="5.94865">
        <ele>580</ele>
        <time>2019-04-08T12:23:29Z</time>
      </trkpt>
      <trkpt lat="45.39031" lon="5.94908">
        <ele>584</ele>
        <time>2019-04-08T12:24:29Z</time>
      </trkpt>
      <trkpt lat="45.39049" lon="5.94944">
        <ele>581</ele>
        <time>2019-04-08T12:25:29Z</time>
      </trkpt>
      <trkpt lat="45.39076" lon="5.95017">
        <ele>570</ele>
        <time>2019-04-08T12:26:29Z</time>
      </trkpt>
      <trkpt lat="45.39075" lon="5.95073">
        <ele>560</ele>
        <time>2019-04-08T12:27:29Z</time>
      </trkpt>
      <trkpt lat="45.39051" lon="5.95201">
        <ele>533</ele>
        <time>2019-04-08T12:28:29Z</time>
      </trkpt>
      <trkpt lat="45.39141" lon="5.95427">
        <ele>521</ele>
        <time>2019-04-08T12:29:29Z</time>
      </trkpt>
      <trkpt lat="45.39192" lon="5.95538">
        <ele>504</ele>
        <time>2019-04-08T12:30:29Z</time>
      </trkpt>
      <trkpt lat="45.3903" lon="5.95528">
        <ele>450</ele>
        <time>2019-04-08T12:31:29Z</time>
      </trkpt>
      <trkpt lat="45.39002" lon="5.95493">
        <ele>447</ele>
        <time>2019-04-08T12:32:29Z</time>
      </trkpt>
      <trkpt lat="45.38948" lon="5.95483">
        <ele>431</ele>
        <time>2019-04-08T12:33:29Z</time>
      </trkpt>
      <trkpt lat="45.38787" lon="5.95427">
        <ele>400</ele>
        <time>2019-04-08T12:34:29Z</time>
      </trkpt>
    </trkseg>
  </trk>
</gpx>